Time;durP1;ratioP1;P1;durP2;ratioP2;P2;SDS_P1;SDS_P2;PMS_P1;PMS_P2;Temp;Humidity;BMP_temperature;BMP_pressure;BME280_temperature;BME280_humidity;BME280_pressure;Samples;Min_cycle;Max_cycle;Signal;HPM_P1;HPM_P2
2023/05/14 00:02:16;;;;;;;11.95;9.32;;;;;;;;;;4943251;29;20188;-74
2023/05/14 00:04:42;;;;;;;12.07;9.30;;;;;;;;;;4926862;29;20182;-74
2023/05/14 00:07:07;;;;;;;10.20;9.20;;;;;;;;;;4942980;29;20185;-74
2023/05/14 00:09:34;;;;;;;16.43;9.80;;;;;;;;;;4944161;29;20400;-74
2023/05/14 00:12:00;;;;;;;9.55;8.60;;;;;;;;;;4943686;29;20425;-75
2023/05/14 00:14:26;;;;;;;9.40;8.47;;;;;;;;;;4943131;29;20188;-74
2023/05/14 00:16:52;;;;;;;13.37;9.27;;;;;;;;;;4943748;29;20493;-73
2023/05/14 00:19:18;;;;;;;14.90;11.00;;;;;;;;;;4943252;29;20449;-73
2023/05/14 00:21:44;;;;;;;12.50;9.40;;;;;;;;;;4943402;29;20398;-74
2023/05/14 00:24:10;;;;;;;11.20;9.30;;;;;;;;;;4942991;29;20678;-74
2023/05/14 00:26:36;;;;;;;9.88;8.88;;;;;;;;;;4943302;29;20204;-74
2023/05/14 00:29:02;;;;;;;9.10;8.20;;;;;;;;;;4943371;29;20189;-74
2023/05/14 00:31:28;;;;;;;13.60;10.27;;;;;;;;;;4943156;29;20496;-74
2023/05/14 00:33:53;;;;;;;9.33;8.33;;;;;;;;;;4943535;29;20409;-74
2023/05/14 00:36:19;;;;;;;10.00;8.77;;;;;;;;;;4942973;29;21154;-73
2023/05/14 00:38:45;;;;;;;12.70;9.53;;;;;;;;;;4943103;29;20398;-74
2023/05/14 00:41:11;;;;;;;11.67;9.30;;;;;;;;;;4942840;29;20410;-74
2023/05/14 00:43:38;;;;;;;9.65;8.75;;;;;;;;;;4943351;29;20410;-74
2023/05/14 00:46:04;;;;;;;11.00;9.90;;;;;;;;;;4942300;29;20201;-74
2023/05/14 00:48:31;;;;;;;14.57;10.55;;;;;;;;;;4943098;29;20177;-74
2023/05/14 00:50:57;;;;;;;10.70;9.60;;;;;;;;;;4942736;29;20244;-74
2023/05/14 00:53:23;;;;;;;10.73;9.68;;;;;;;;;;4942430;29;20178;-74
2023/05/14 00:55:50;;;;;;;10.25;9.15;;;;;;;;;;4943075;29;20185;-73
2023/05/14 00:58:17;;;;;;;12.25;10.10;;;;;;;;;;4942286;29;20305;-74
2023/05/14 01:00:43;;;;;;;11.38;10.02;;;;;;;;;;4943088;29;20205;-73
2023/05/14 01:03:09;;;;;;;11.57;10.50;;;;;;;;;;4942532;29;20189;-74
2023/05/14 01:05:45;;;;;;;10.43;9.32;;;;;;;;;;4942873;29;20426;-74
2023/05/14 01:08:27;;;;;;;10.25;9.35;;;;;;;;;;4942453;29;20274;-74
2023/05/14 01:11:20;;;;;;;13.40;10.43;;;;;;;;;;4941781;29;20177;-73
2023/05/14 01:13:49;;;;;;;11.60;10.15;;;;;;;;;;4937427;29;20228;-73
2023/05/14 01:16:16;;;;;;;11.43;10.40;;;;;;;;;;4942218;29;20187;-74
2023/05/14 01:18:43;;;;;;;10.30;9.13;;;;;;;;;;4943126;29;20180;-74
2023/05/14 01:21:23;;;;;;;11.30;10.10;;;;;;;;;;4942359;29;20189;-74
2023/05/14 01:23:49;;;;;;;11.13;9.20;;;;;;;;;;4942743;29;20174;-74
2023/05/14 01:26:15;;;;;;;13.00;9.20;;;;;;;;;;4941862;29;20184;-74
2023/05/14 01:28:42;;;;;;;12.47;11.00;;;;;;;;;;4942094;29;20807;-74
2023/05/14 01:31:14;;;;;;;13.02;11.02;;;;;;;;;;4942375;29;20417;-74
2023/05/14 01:33:41;;;;;;;10.77;9.70;;;;;;;;;;4941958;29;20181;-74
2023/05/14 01:36:08;;;;;;;12.60;11.05;;;;;;;;;;4941421;29;20177;-74
2023/05/14 01:38:35;;;;;;;12.00;10.80;;;;;;;;;;4941714;29;20178;-74
2023/05/14 01:41:01;;;;;;;12.60;10.40;;;;;;;;;;4942122;29;20173;-74
2023/05/14 01:43:28;;;;;;;12.73;10.80;;;;;;;;;;4941612;29;20637;-74
2023/05/14 01:45:54;;;;;;;12.20;11.00;;;;;;;;;;4942029;29;20269;-74
2023/05/14 01:48:20;;;;;;;11.38;9.57;;;;;;;;;;4941510;29;20277;-74
2023/05/14 01:50:46;;;;;;;14.90;9.98;;;;;;;;;;4941327;29;20572;-74
2023/05/14 01:53:12;;;;;;;15.00;11.70;;;;;;;;;;4941226;29;20186;-74
2023/05/14 01:55:38;;;;;;;11.85;10.63;;;;;;;;;;4941708;29;20420;-74
2023/05/14 01:58:04;;;;;;;15.95;11.35;;;;;;;;;;4941719;29;20214;-74
2023/05/14 02:00:30;;;;;;;13.02;11.35;;;;;;;;;;4924927;29;20285;-74
2023/05/14 02:02:56;;;;;;;16.33;12.23;;;;;;;;;;4940127;29;20213;-74
2023/05/14 02:05:22;;;;;;;13.40;12.07;;;;;;;;;;4941310;29;20461;-74
2023/05/14 02:07:48;;;;;;;17.02;13.13;;;;;;;;;;4940289;29;20425;-74
2023/05/14 02:10:14;;;;;;;15.50;11.90;;;;;;;;;;4940630;29;20762;-74
2023/05/14 02:12:40;;;;;;;17.10;14.17;;;;;;;;;;4940966;29;20437;-74
2023/05/14 02:15:07;;;;;;;15.70;13.43;;;;;;;;;;4940519;29;20937;-76
2023/05/14 02:17:33;;;;;;;14.00;12.40;;;;;;;;;;4940261;29;20268;-73
2023/05/14 02:19:59;;;;;;;14.85;13.25;;;;;;;;;;4940722;29;20190;-73
2023/05/14 02:22:25;;;;;;;14.53;13.00;;;;;;;;;;4941042;29;20526;-73
2023/05/14 02:24:51;;;;;;;13.30;11.90;;;;;;;;;;4940598;29;20429;-74
2023/05/14 02:27:17;;;;;;;19.23;13.17;;;;;;;;;;4940526;29;20409;-73
2023/05/14 02:29:44;;;;;;;14.85;13.27;;;;;;;;;;4940998;29;20507;-74
2023/05/14 02:32:10;;;;;;;18.63;14.38;;;;;;;;;;4940353;29;20268;-74
2023/05/14 02:34:36;;;;;;;16.42;13.55;;;;;;;;;;4940190;29;20189;-73
2023/05/14 02:37:02;;;;;;;17.33;14.63;;;;;;;;;;4940538;29;20209;-73
2023/05/14 02:39:28;;;;;;;15.18;13.55;;;;;;;;;;4940442;29;20185;-73
2023/05/14 02:41:54;;;;;;;22.90;15.40;;;;;;;;;;4940450;29;20184;-74
2023/05/14 02:44:20;;;;;;;20.57;14.77;;;;;;;;;;4940670;29;20880;-74
2023/05/14 02:46:46;;;;;;;15.33;13.33;;;;;;;;;;4940832;29;20422;-74
2023/05/14 02:49:12;;;;;;;18.17;14.23;;;;;;;;;;4940629;29;20520;-74
2023/05/14 02:51:38;;;;;;;18.63;15.07;;;;;;;;;;4940809;29;20465;-74
2023/05/14 02:54:04;;;;;;;19.38;14.43;;;;;;;;;;4940862;29;20425;-73
2023/05/14 02:56:30;;;;;;;18.23;15.82;;;;;;;;;;4940154;29;20681;-73
2023/05/14 02:58:56;;;;;;;18.70;15.70;;;;;;;;;;4940352;29;20178;-73
2023/05/14 03:01:22;;;;;;;17.50;15.70;;;;;;;;;;4940214;29;20500;-73
2023/05/14 03:03:48;;;;;;;16.87;14.00;;;;;;;;;;4940545;29;20909;-74
2023/05/14 03:06:14;;;;;;;18.17;15.50;;;;;;;;;;4940141;29;20828;-74
2023/05/14 03:08:40;;;;;;;19.40;16.63;;;;;;;;;;4940402;29;20428;-73
2023/05/14 03:11:06;;;;;;;19.53;15.33;;;;;;;;;;4940841;29;20505;-73
2023/05/14 03:13:32;;;;;;;27.17;16.67;;;;;;;;;;4940688;29;20500;-73
2023/05/14 03:15:58;;;;;;;21.83;17.57;;;;;;;;;;4940044;29;20200;-74
2023/05/14 03:18:24;;;;;;;21.27;17.30;;;;;;;;;;4939626;29;20473;-73
2023/05/14 03:20:50;;;;;;;18.35;16.45;;;;;;;;;;4940656;29;20768;-74
2023/05/14 03:23:16;;;;;;;24.17;17.90;;;;;;;;;;4940092;29;20192;-74
2023/05/14 03:25:42;;;;;;;19.70;16.57;;;;;;;;;;4940531;29;20929;-73
2023/05/14 03:28:08;;;;;;;22.40;17.50;;;;;;;;;;4940119;29;20443;-73
2023/05/14 03:30:34;;;;;;;21.00;17.92;;;;;;;;;;4940087;29;20417;-73
2023/05/14 03:33:00;;;;;;;20.87;17.37;;;;;;;;;;4941781;29;20209;-74
2023/05/14 03:35:26;;;;;;;21.42;17.98;;;;;;;;;;4943521;29;20905;-74
2023/05/14 03:37:52;;;;;;;19.40;17.38;;;;;;;;;;4944144;29;20313;-73
2023/05/14 03:40:20;;;;;;;23.83;18.25;;;;;;;;;;4944698;29;20225;-74
2023/05/14 03:42:45;;;;;;;19.42;16.88;;;;;;;;;;4943867;29;20209;-73
2023/05/14 03:45:11;;;;;;;21.20;18.23;;;;;;;;;;4944062;29;20187;-77
2023/05/14 03:47:37;;;;;;;24.00;16.60;;;;;;;;;;4944087;29;20485;-73
2023/05/14 03:50:03;;;;;;;18.67;16.60;;;;;;;;;;4943950;29;20480;-73
2023/05/14 03:52:29;;;;;;;24.83;18.33;;;;;;;;;;4944032;29;20257;-73
2023/05/14 03:54:55;;;;;;;22.63;17.58;;;;;;;;;;4944136;29;20647;-73
2023/05/14 03:57:21;;;;;;;22.87;19.33;;;;;;;;;;4943827;29;20221;-74
2023/05/14 03:59:47;;;;;;;20.40;18.27;;;;;;;;;;4943954;29;20462;-73
2023/05/14 04:02:13;;;;;;;22.13;18.40;;;;;;;;;;4944037;29;20401;-75
2023/05/14 04:04:39;;;;;;;21.57;16.67;;;;;;;;;;4943721;29;20445;-74
2023/05/14 04:07:05;;;;;;;23.77;19.58;;;;;;;;;;4943746;29;20846;-74
2023/05/14 04:09:31;;;;;;;21.85;19.25;;;;;;;;;;4943254;29;20272;-73
2023/05/14 04:12:01;;;;;;;20.73;18.53;;;;;;;;;;4942665;29;20213;-74
2023/05/14 04:14:27;;;;;;;23.23;19.17;;;;;;;;;;4942103;29;20421;-72
2023/05/14 04:16:53;;;;;;;22.57;17.73;;;;;;;;;;4943473;29;20306;-72
2023/05/14 04:19:19;;;;;;;18.57;16.57;;;;;;;;;;4943346;29;20785;-73
2023/05/14 04:21:45;;;;;;;24.50;19.60;;;;;;;;;;4943418;29;20405;-73
2023/05/14 04:24:11;;;;;;;20.87;17.67;;;;;;;;;;4943404;29;20412;-74
2023/05/14 04:26:37;;;;;;;24.37;18.57;;;;;;;;;;4943049;29;20425;-72
2023/05/14 04:29:03;;;;;;;23.27;17.57;;;;;;;;;;4943459;29;20902;-74
2023/05/14 04:31:30;;;;;;;26.25;20.02;;;;;;;;;;4942888;29;20477;-74
2023/05/14 04:33:56;;;;;;;21.70;18.80;;;;;;;;;;4943081;29;20177;-74
2023/05/14 04:36:22;;;;;;;26.37;20.50;;;;;;;;;;4942979;29;20177;-74
2023/05/14 04:38:48;;;;;;;22.48;19.80;;;;;;;;;;4943202;29;20425;-74
2023/05/14 04:41:14;;;;;;;22.50;19.37;;;;;;;;;;4943446;29;20185;-74
2023/05/14 04:43:40;;;;;;;27.83;21.05;;;;;;;;;;4942676;29;20418;-74
2023/05/14 04:46:06;;;;;;;27.47;20.80;;;;;;;;;;4942994;29;20279;-74
2023/05/14 04:48:32;;;;;;;23.10;18.77;;;;;;;;;;4942829;29;20937;-74
2023/05/14 04:50:58;;;;;;;28.17;21.10;;;;;;;;;;4942874;29;20576;-74
2023/05/14 04:53:24;;;;;;;22.40;18.87;;;;;;;;;;4942693;29;20413;-73
2023/05/14 04:55:50;;;;;;;27.00;21.05;;;;;;;;;;4942362;29;20421;-74
2023/05/14 04:58:16;;;;;;;25.52;21.05;;;;;;;;;;4942139;29;20221;-76
2023/05/14 05:00:42;;;;;;;26.47;21.97;;;;;;;;;;4942582;29;20222;-74
2023/05/14 05:03:08;;;;;;;27.25;23.10;;;;;;;;;;4942546;29;20462;-74
2023/05/14 05:05:34;;;;;;;26.27;21.30;;;;;;;;;;4942699;29;20181;-74
2023/05/14 05:08:00;;;;;;;24.98;22.10;;;;;;;;;;4942626;29;20469;-74
2023/05/14 05:10:26;;;;;;;30.80;23.00;;;;;;;;;;4942076;29;20178;-74
2023/05/14 05:12:52;;;;;;;31.90;23.07;;;;;;;;;;4942303;29;20414;-74
2023/05/14 05:15:18;;;;;;;29.47;22.80;;;;;;;;;;4942408;29;20968;-75
2023/05/14 05:17:44;;;;;;;28.47;22.97;;;;;;;;;;4942434;29;20841;-74
2023/05/14 05:20:10;;;;;;;26.95;21.45;;;;;;;;;;4941986;29;20440;-74
2023/05/14 05:22:36;;;;;;;30.02;24.13;;;;;;;;;;4941897;29;20533;-74
2023/05/14 05:25:05;;;;;;;32.47;25.50;;;;;;;;;;4942203;29;20275;-74
2023/05/14 05:27:32;;;;;;;33.97;26.98;;;;;;;;;;4941426;29;20244;-74
2023/05/14 05:29:58;;;;;;;34.45;27.10;;;;;;;;;;4942353;29;20241;-72
2023/05/14 05:32:24;;;;;;;35.20;28.38;;;;;;;;;;4941743;29;20725;-74
2023/05/14 05:34:50;;;;;;;35.25;27.45;;;;;;;;;;4942583;29;20170;-74
2023/05/14 05:37:17;;;;;;;35.25;27.73;;;;;;;;;;4942543;29;20205;-74
2023/05/14 05:39:43;;;;;;;38.72;30.40;;;;;;;;;;4942640;29;20174;-74
2023/05/14 05:42:09;;;;;;;41.40;30.97;;;;;;;;;;4942170;29;20260;-74
2023/05/14 05:44:35;;;;;;;44.60;31.98;;;;;;;;;;4941691;29;20412;-74
2023/05/14 05:47:01;;;;;;;41.58;32.15;;;;;;;;;;4942163;29;20268;-74
2023/05/14 05:49:27;;;;;;;40.73;32.37;;;;;;;;;;4941881;29;20232;-75
2023/05/14 05:51:53;;;;;;;51.58;37.35;;;;;;;;;;4941971;29;20465;-74
2023/05/14 05:54:19;;;;;;;45.97;35.10;;;;;;;;;;4942461;29;20216;-78
2023/05/14 05:56:45;;;;;;;47.30;34.90;;;;;;;;;;4941256;29;20480;-75
2023/05/14 05:59:11;;;;;;;47.73;36.83;;;;;;;;;;4942112;29;20405;-74
2023/05/14 06:01:37;;;;;;;47.88;38.80;;;;;;;;;;4942231;29;20969;-75
2023/05/14 06:04:05;;;;;;;54.53;41.17;;;;;;;;;;4941679;29;20275;-75
2023/05/14 06:06:31;;;;;;;43.78;33.83;;;;;;;;;;4941607;29;20417;-75
2023/05/14 06:08:57;;;;;;;38.95;32.75;;;;;;;;;;4940764;29;20194;-75
2023/05/14 06:11:23;;;;;;;40.45;33.92;;;;;;;;;;4940193;29;20184;-75
2023/05/14 06:13:49;;;;;;;43.42;32.65;;;;;;;;;;4941764;29;20518;-74
2023/05/14 06:16:15;;;;;;;38.57;32.30;;;;;;;;;;4942497;29;20188;-74
2023/05/14 06:18:41;;;;;;;49.63;37.47;;;;;;;;;;4940603;29;20832;-74
2023/05/14 06:21:07;;;;;;;44.50;35.73;;;;;;;;;;4941030;29;20421;-74
2023/05/14 06:23:33;;;;;;;47.40;37.30;;;;;;;;;;4941118;29;20437;-74
2023/05/14 06:25:59;;;;;;;48.95;36.80;;;;;;;;;;4941297;29;20484;-76
2023/05/14 06:28:25;;;;;;;52.13;38.27;;;;;;;;;;4940829;29;20232;-74
2023/05/14 06:30:52;;;;;;;43.80;36.40;;;;;;;;;;4940794;29;20492;-74
2023/05/14 06:33:20;;;;;;;41.97;32.78;;;;;;;;;;4941324;29;20582;-74
2023/05/14 06:35:46;;;;;;;43.95;34.97;;;;;;;;;;4941671;29;20178;-74
2023/05/14 06:38:12;;;;;;;47.30;38.20;;;;;;;;;;4941269;29;20221;-74
2023/05/14 06:40:38;;;;;;;48.83;37.47;;;;;;;;;;4939934;29;20417;-75
2023/05/14 06:43:05;;;;;;;50.10;38.83;;;;;;;;;;4940761;29;20575;-74
2023/05/14 06:45:31;;;;;;;54.58;40.78;;;;;;;;;;4941306;29;20937;-74
2023/05/14 06:47:57;;;;;;;50.42;40.00;;;;;;;;;;4939406;29;20189;-77
2023/05/14 06:50:23;;;;;;;54.47;41.60;;;;;;;;;;4939949;29;20244;-77
2023/05/14 06:52:49;;;;;;;54.55;43.65;;;;;;;;;;4940029;29;20181;-77
2023/05/14 06:55:15;;;;;;;52.43;41.73;;;;;;;;;;4939644;29;20225;-77
2023/05/14 06:57:41;;;;;;;54.05;41.47;;;;;;;;;;4939524;29;20480;-77
2023/05/14 07:00:08;;;;;;;47.67;40.05;;;;;;;;;;4939582;29;20257;-77
2023/05/14 07:02:34;;;;;;;50.73;41.13;;;;;;;;;;4940171;29;20174;-75
2023/05/14 07:05:00;;;;;;;48.17;40.42;;;;;;;;;;4939835;29;20418;-75
2023/05/14 07:07:26;;;;;;;49.13;41.20;;;;;;;;;;4939078;29;20193;-75
2023/05/14 07:09:52;;;;;;;54.73;41.43;;;;;;;;;;4939990;29;20413;-77
2023/05/14 07:12:18;;;;;;;53.20;43.83;;;;;;;;;;4939970;29;20436;-77
2023/05/14 07:14:45;;;;;;;58.20;45.60;;;;;;;;;;4939970;29;20425;-77
2023/05/14 07:17:11;;;;;;;51.27;41.10;;;;;;;;;;4940241;29;20568;-74
2023/05/14 07:19:37;;;;;;;44.20;37.80;;;;;;;;;;4940244;29;20505;-77
2023/05/14 07:22:03;;;;;;;42.37;36.20;;;;;;;;;;4939508;29;20406;-76
2023/05/14 07:24:29;;;;;;;36.83;32.93;;;;;;;;;;4939436;29;20413;-75
2023/05/14 07:26:56;;;;;;;39.63;33.17;;;;;;;;;;4940111;29;20402;-76
2023/05/14 07:29:24;;;;;;;35.60;31.27;;;;;;;;;;4939560;29;20426;-77
2023/05/14 07:31:50;;;;;;;33.10;29.60;;;;;;;;;;4938322;29;20764;-77
2023/05/14 07:34:16;;;;;;;29.63;26.50;;;;;;;;;;4939461;29;20445;-77
2023/05/14 07:36:42;;;;;;;30.47;27.23;;;;;;;;;;4939403;29;20473;-75
2023/05/14 07:39:08;;;;;;;29.97;26.40;;;;;;;;;;4939813;29;20402;-75
2023/05/14 07:41:34;;;;;;;26.17;23.37;;;;;;;;;;4939748;29;20441;-75
2023/05/14 07:44:00;;;;;;;24.47;21.97;;;;;;;;;;4940000;29;20414;-74
2023/05/14 07:46:26;;;;;;;25.87;20.90;;;;;;;;;;4939665;29;20409;-76
2023/05/14 07:48:52;;;;;;;22.00;19.90;;;;;;;;;;4939406;29;20418;-75
2023/05/14 07:51:18;;;;;;;22.97;20.70;;;;;;;;;;4939909;29;20499;-75
2023/05/14 07:53:44;;;;;;;23.37;18.73;;;;;;;;;;4939172;29;20413;-75
2023/05/14 07:56:10;;;;;;;17.47;15.67;;;;;;;;;;4939683;29;20429;-78
2023/05/14 07:58:36;;;;;;;17.83;15.60;;;;;;;;;;4939383;29;20887;-78
2023/05/14 08:01:05;;;;;;;15.20;13.60;;;;;;;;;;4939468;29;20473;-77
2023/05/14 08:03:32;;;;;;;15.73;14.13;;;;;;;;;;4939062;29;20929;-78
2023/05/14 08:05:58;;;;;;;18.10;14.17;;;;;;;;;;4939290;29;20409;-78
2023/05/14 08:08:25;;;;;;;15.17;13.13;;;;;;;;;;4939213;29;20426;-78
2023/05/14 08:10:51;;;;;;;14.00;12.13;;;;;;;;;;4938931;29;20395;-75
2023/05/14 08:13:17;;;;;;;18.67;14.80;;;;;;;;;;4939399;29;20405;-78
2023/05/14 08:15:43;;;;;;;16.73;13.70;;;;;;;;;;4938931;29;20444;-78
2023/05/14 08:18:09;;;;;;;13.73;12.43;;;;;;;;;;4939512;29;20465;-78
2023/05/14 08:20:35;;;;;;;11.70;10.60;;;;;;;;;;4940816;29;20429;-78
2023/05/14 08:23:01;;;;;;;12.30;11.00;;;;;;;;;;4941707;29;20420;-75
2023/05/14 08:25:27;;;;;;;14.90;13.03;;;;;;;;;;4942524;29;20380;-74
2023/05/14 08:27:53;;;;;;;14.30;12.13;;;;;;;;;;4942804;29;20409;-75
2023/05/14 08:30:20;;;;;;;17.60;11.97;;;;;;;;;;4942135;29;20778;-75
2023/05/14 08:32:46;;;;;;;14.10;11.93;;;;;;;;;;4942261;29;20417;-75
2023/05/14 08:35:12;;;;;;;14.27;11.20;;;;;;;;;;4942464;29;20427;-75
2023/05/14 08:37:38;;;;;;;13.83;12.43;;;;;;;;;;4941610;29;20435;-75
2023/05/14 08:40:06;;;;;;;17.13;11.80;;;;;;;;;;4941754;29;20767;-75
2023/05/14 08:42:32;;;;;;;11.47;10.27;;;;;;;;;;4941754;29;20402;-75
2023/05/14 08:45:02;;;;;;;12.63;11.00;;;;;;;;;;4942073;29;20413;-75
2023/05/14 08:47:29;;;;;;;11.87;10.23;;;;;;;;;;4942163;29;21075;-75
2023/05/14 08:50:06;;;;;;;13.17;11.80;;;;;;;;;;4941485;29;20483;-75
2023/05/14 08:52:32;;;;;;;12.27;11.07;;;;;;;;;;4941473;29;20401;-76
2023/05/14 08:55:00;;;;;;;13.33;11.03;;;;;;;;;;4941676;29;20412;-76
2023/05/14 08:57:28;;;;;;;16.20;10.60;;;;;;;;;;4941183;29;20447;-76
2023/05/14 08:59:54;;;;;;;11.63;10.20;;;;;;;;;;4941085;29;20848;-77
2023/05/14 09:02:23;;;;;;;12.80;11.50;;;;;;;;;;4941014;29;20406;-75
2023/05/14 09:04:51;;;;;;;13.17;10.33;;;;;;;;;;4940626;29;20509;-76
2023/05/14 09:07:17;;;;;;;14.53;11.80;;;;;;;;;;4940726;29;20772;-76
2023/05/14 09:09:44;;;;;;;11.70;10.60;;;;;;;;;;4939356;29;20404;-77
2023/05/14 09:12:10;;;;;;;14.07;10.57;;;;;;;;;;4940522;29;20485;-77
2023/05/14 09:14:36;;;;;;;12.50;11.23;;;;;;;;;;4940594;29;20408;-77
2023/05/14 09:17:03;;;;;;;11.83;10.20;;;;;;;;;;4940189;29;20484;-76
2023/05/14 09:19:29;;;;;;;11.67;10.60;;;;;;;;;;4940289;29;20437;-76
2023/05/14 09:21:57;;;;;;;15.67;12.60;;;;;;;;;;4940029;29;20784;-76
2023/05/14 09:24:25;;;;;;;12.10;10.90;;;;;;;;;;4940561;29;20479;-77
2023/05/14 09:26:55;;;;;;;10.30;9.30;;;;;;;;;;4939845;29;20828;-77
2023/05/14 09:29:21;;;;;;;10.03;9.10;;;;;;;;;;4939618;29;20866;-77
2023/05/14 09:31:49;;;;;;;10.50;9.10;;;;;;;;;;4939103;29;20501;-77
2023/05/14 09:34:25;;;;;;;10.80;9.80;;;;;;;;;;4940339;29;20406;-76
2023/05/14 09:36:56;;;;;;;10.17;9.00;;;;;;;;;;4939471;29;20456;-77
2023/05/14 09:39:23;;;;;;;9.43;8.00;;;;;;;;;;4939698;29;20914;-76
2023/05/14 09:41:50;;;;;;;10.27;8.80;;;;;;;;;;4939603;29;20445;-76
2023/05/14 09:44:16;;;;;;;9.70;8.73;;;;;;;;;;4937825;29;20488;-77
2023/05/14 09:46:42;;;;;;;10.13;8.67;;;;;;;;;;4939446;29;20414;-77
2023/05/14 09:49:08;;;;;;;9.73;8.50;;;;;;;;;;4937755;29;20417;-77
2023/05/14 09:51:36;;;;;;;8.07;7.30;;;;;;;;;;4938579;29;20469;-77
2023/05/14 09:54:03;;;;;;;8.90;8.00;;;;;;;;;;4939126;29;20469;-77
2023/05/14 09:56:29;;;;;;;9.00;7.40;;;;;;;;;;4938645;29;20413;-76
2023/05/14 09:58:55;;;;;;;7.50;6.90;;;;;;;;;;4937215;29;20428;-77
2023/05/14 10:01:22;;;;;;;8.30;7.20;;;;;;;;;;4938432;29;20505;-76
2023/05/14 10:03:48;;;;;;;12.40;8.33;;;;;;;;;;4938254;29;20409;-77
2023/05/14 10:06:16;;;;;;;7.97;7.20;;;;;;;;;;4938890;29;20413;-76
2023/05/14 10:08:44;;;;;;;7.53;6.83;;;;;;;;;;4937987;29;20421;-76
2023/05/14 10:11:13;;;;;;;10.33;9.17;;;;;;;;;;4938090;29;20500;-78
2023/05/14 10:13:41;;;;;;;11.80;8.40;;;;;;;;;;4937844;29;20432;-76
2023/05/14 10:16:12;;;;;;;10.53;8.13;;;;;;;;;;4938338;29;20410;-76
2023/05/14 10:18:47;;;;;;;6.80;6.20;;;;;;;;;;4937919;29;20559;-77
2023/05/14 10:21:14;;;;;;;10.20;9.17;;;;;;;;;;4938777;29;20496;-76
2023/05/14 10:23:40;;;;;;;12.20;10.37;;;;;;;;;;4937999;29;20406;-77
2023/05/14 10:26:07;;;;;;;14.37;11.00;;;;;;;;;;4938294;29;20406;-76
2023/05/14 10:28:33;;;;;;;12.73;11.53;;;;;;;;;;4938176;29;20410;-77
2023/05/14 10:30:59;;;;;;;12.87;11.77;;;;;;;;;;4938135;29;20485;-77
2023/05/14 10:33:25;;;;;;;12.83;11.70;;;;;;;;;;4938377;29;20414;-77
2023/05/14 10:35:51;;;;;;;10.90;9.83;;;;;;;;;;4937862;29;20402;-78
2023/05/14 10:38:17;;;;;;;11.50;10.30;;;;;;;;;;4937741;29;20464;-78
2023/05/14 10:40:43;;;;;;;9.40;8.60;;;;;;;;;;4937751;29;20402;-78
2023/05/14 10:43:10;;;;;;;13.80;12.57;;;;;;;;;;4938191;29;20418;-78
2023/05/14 10:45:36;;;;;;;15.27;13.73;;;;;;;;;;4937923;29;20416;-77
2023/05/14 10:48:02;;;;;;;17.33;15.63;;;;;;;;;;4938027;29;20445;-77
2023/05/14 10:50:29;;;;;;;17.17;15.57;;;;;;;;;;4938602;29;20484;-77
2023/05/14 10:52:56;;;;;;;15.90;14.30;;;;;;;;;;4937699;29;20432;-77
2023/05/14 10:55:22;;;;;;;15.67;13.57;;;;;;;;;;4938391;29;20409;-77
2023/05/14 10:57:48;;;;;;;18.23;16.53;;;;;;;;;;4937899;29;20898;-77
2023/05/14 11:00:15;;;;;;;16.47;15.07;;;;;;;;;;4937938;29;20436;-77
2023/05/14 11:02:42;;;;;;;16.83;15.13;;;;;;;;;;4937860;29;20513;-77
2023/05/14 11:05:09;;;;;;;16.70;15.17;;;;;;;;;;4937871;29;20420;-77
2023/05/14 11:07:36;;;;;;;19.70;17.33;;;;;;;;;;4937811;29;20413;-77
2023/05/14 11:10:03;;;;;;;16.17;14.67;;;;;;;;;;4938134;29;20388;-78
2023/05/14 11:12:29;;;;;;;16.93;15.37;;;;;;;;;;4937507;29;20453;-77
2023/05/14 11:14:59;;;;;;;18.80;16.80;;;;;;;;;;4937030;29;20476;-77
2023/05/14 11:17:26;;;;;;;18.90;17.00;;;;;;;;;;4937666;29;20620;-76
2023/05/14 11:19:52;;;;;;;18.27;16.57;;;;;;;;;;4937711;29;20425;-76
2023/05/14 11:22:18;;;;;;;16.97;15.40;;;;;;;;;;4937418;29;20490;-77
2023/05/14 11:24:44;;;;;;;17.93;16.27;;;;;;;;;;4936323;29;20457;-76
2023/05/14 11:27:10;;;;;;;17.23;15.43;;;;;;;;;;4937261;29;20422;-76
2023/05/14 11:29:37;;;;;;;17.87;16.10;;;;;;;;;;4937498;29;20459;-77
2023/05/14 11:32:06;;;;;;;16.60;14.90;;;;;;;;;;4937622;29;20422;-76
2023/05/14 11:34:33;;;;;;;17.60;15.80;;;;;;;;;;4937250;29;20456;-76
2023/05/14 11:37:02;;;;;;;16.83;15.23;;;;;;;;;;4936719;29;21124;-76
2023/05/14 11:39:28;;;;;;;15.53;13.50;;;;;;;;;;4937703;29;20767;-77
2023/05/14 11:41:54;;;;;;;14.97;13.47;;;;;;;;;;4937276;29;20417;-77
2023/05/14 11:44:20;;;;;;;14.73;12.17;;;;;;;;;;4937723;29;20429;-76
2023/05/14 11:47:00;;;;;;;12.60;11.40;;;;;;;;;;4937076;29;20446;-77
2023/05/14 11:49:28;;;;;;;15.30;9.40;;;;;;;;;;4937475;29;20432;-78
2023/05/14 11:52:00;;;;;;;10.30;9.20;;;;;;;;;;4937290;29;20934;-75
2023/05/14 11:54:27;;;;;;;9.83;8.83;;;;;;;;;;4939815;29;20418;-76
2023/05/14 11:56:54;;;;;;;12.77;11.57;;;;;;;;;;4940781;29;20518;-76
2023/05/14 11:59:20;;;;;;;9.03;8.13;;;;;;;;;;4941076;29;20418;-78
2023/05/14 12:01:46;;;;;;;8.77;7.97;;;;;;;;;;4940881;29;20410;-77
2023/05/14 12:04:13;;;;;;;8.47;7.53;;;;;;;;;;4940809;29;20421;-76
2023/05/14 12:06:39;;;;;;;9.97;8.13;;;;;;;;;;4940868;29;20783;-76
2023/05/14 12:09:06;;;;;;;8.13;7.33;;;;;;;;;;4940584;29;20476;-76
2023/05/14 12:11:32;;;;;;;10.17;7.07;;;;;;;;;;4940923;29;20413;-76
2023/05/14 12:13:59;;;;;;;16.13;6.67;;;;;;;;;;4938973;29;20906;-77
2023/05/14 12:16:30;;;;;;;8.70;7.77;;;;;;;;;;4939896;29;20890;-84
2023/05/14 12:19:00;;;;;;;8.80;8.00;;;;;;;;;;4939748;29;20433;-84
2023/05/14 12:21:26;;;;;;;7.10;6.17;;;;;;;;;;4958368;29;20408;-84
2023/05/14 12:23:59;;;;;;;8.40;7.50;;;;;;;;;;4958862;29;20492;-85
2023/05/14 12:26:28;;;;;;;7.40;6.70;;;;;;;;;;4959135;29;20951;-83
2023/05/14 12:29:01;;;;;;;7.20;6.03;;;;;;;;;;4958420;29;20914;-83
2023/05/14 12:31:30;;;;;;;6.87;6.17;;;;;;;;;;4957418;29;20420;-83
2023/05/14 12:33:57;;;;;;;5.87;5.33;;;;;;;;;;4961035;29;20897;-85
2023/05/14 12:36:23;;;;;;;6.20;4.80;;;;;;;;;;4962101;29;20404;-83
2023/05/14 12:38:49;;;;;;;8.13;5.00;;;;;;;;;;4960971;29;20471;-85
2023/05/14 12:41:16;;;;;;;6.93;6.23;;;;;;;;;;4961937;29;20415;-85
2023/05/14 12:43:43;;;;;;;6.47;5.80;;;;;;;;;;4962532;29;20500;-84
2023/05/14 12:46:09;;;;;;;6.73;6.23;;;;;;;;;;4961991;29;20420;-84
2023/05/14 12:48:35;;;;;;;9.43;6.20;;;;;;;;;;4960939;29;20893;-85
2023/05/14 12:51:01;;;;;;;6.13;5.53;;;;;;;;;;4958170;29;20991;-79
2023/05/14 12:53:27;;;;;;;6.50;5.90;;;;;;;;;;4958597;29;20416;-78
2023/05/14 12:55:54;;;;;;;7.67;5.90;;;;;;;;;;4958246;29;20409;-78
2023/05/14 12:58:20;;;;;;;9.13;5.13;;;;;;;;;;4958796;29;20472;-78
2023/05/14 13:00:46;;;;;;;6.23;5.73;;;;;;;;;;4958232;29;20499;-79
2023/05/14 13:03:12;;;;;;;8.10;5.50;;;;;;;;;;4958512;29;20828;-78
2023/05/14 13:05:38;;;;;;;5.63;4.60;;;;;;;;;;4958587;28;20438;-78
2023/05/14 13:08:04;;;;;;;4.30;3.83;;;;;;;;;;4958280;29;20421;-79
2023/05/14 13:10:30;;;;;;;5.30;4.13;;;;;;;;;;4958143;29;20468;-78
2023/05/14 13:12:57;;;;;;;4.30;3.60;;;;;;;;;;4958013;29;20539;-78
2023/05/14 13:15:23;;;;;;;5.67;5.17;;;;;;;;;;4958293;29;20408;-78
2023/05/14 13:17:49;;;;;;;6.83;5.40;;;;;;;;;;4958265;29;20610;-78
2023/05/14 13:20:17;;;;;;;7.63;5.40;;;;;;;;;;4959020;29;20424;-78
2023/05/14 13:22:43;;;;;;;6.90;5.37;;;;;;;;;;4958067;29;20408;-78
2023/05/14 13:25:09;;;;;;;7.80;6.00;;;;;;;;;;4958213;29;20408;-78
2023/05/14 13:27:35;;;;;;;7.00;5.80;;;;;;;;;;4958269;29;20424;-78
2023/05/14 13:30:02;;;;;;;9.63;5.57;;;;;;;;;;4957944;29;20420;-77
2023/05/14 13:32:29;;;;;;;6.53;5.53;;;;;;;;;;4957913;29;20424;-78
2023/05/14 13:34:55;;;;;;;9.33;5.97;;;;;;;;;;4956700;29;20419;-77
2023/05/14 13:37:21;;;;;;;7.50;5.87;;;;;;;;;;4957938;29;20460;-78
2023/05/14 13:39:47;;;;;;;7.67;5.43;;;;;;;;;;4957768;29;20413;-80
2023/05/14 13:42:13;;;;;;;7.73;5.70;;;;;;;;;;4958227;29;20420;-77
2023/05/14 13:44:39;;;;;;;6.20;4.90;;;;;;;;;;4958197;29;20492;-77
2023/05/14 13:47:06;;;;;;;5.40;4.90;;;;;;;;;;4957587;29;20416;-77
2023/05/14 13:49:32;;;;;;;5.70;5.10;;;;;;;;;;4958145;29;20392;-77
2023/05/14 13:51:58;;;;;;;5.53;4.73;;;;;;;;;;4958069;29;20891;-77
2023/05/14 13:54:24;;;;;;;6.20;4.67;;;;;;;;;;4957888;29;20432;-77
2023/05/14 13:56:50;;;;;;;6.23;4.60;;;;;;;;;;4957974;29;20436;-78
2023/05/14 13:59:16;;;;;;;5.17;4.23;;;;;;;;;;4957709;29;20419;-77
2023/05/14 14:01:42;;;;;;;7.97;4.50;;;;;;;;;;4957897;29;20479;-77
2023/05/14 14:04:09;;;;;;;9.10;4.30;;;;;;;;;;4957341;29;20443;-78
2023/05/14 14:06:35;;;;;;;12.60;3.97;;;;;;;;;;4957306;29;20409;-78
2023/05/14 14:09:01;;;;;;;5.60;3.90;;;;;;;;;;4957620;29;20423;-78
2023/05/14 14:11:28;;;;;;;7.80;4.10;;;;;;;;;;4957454;29;20471;-78
2023/05/14 14:13:54;;;;;;;5.23;3.30;;;;;;;;;;4956903;29;20420;-78
2023/05/14 14:16:20;;;;;;;5.80;3.87;;;;;;;;;;4956309;28;20468;-78
2023/05/14 14:18:46;;;;;;;3.87;3.43;;;;;;;;;;4958605;29;20476;-77
2023/05/14 14:21:12;;;;;;;4.13;3.10;;;;;;;;;;4956518;29;20424;-78